Time;durP1;ratioP1;P1;durP2;ratioP2;P2;SDS_P1;SDS_P2;PMS_P1;PMS_P2;Temp;Humidity;BMP_temperature;BMP_pressure;BME280_temperature;BME280_humidity;BME280_pressure;Samples;Min_cycle;Max_cycle;Signal;HPM_P1;HPM_P2
2023/01/21 00:02:15;;;;;;;23.13;17.70;;;1.80;99.20;;;;;;5015315;28;20468;-54
2023/01/21 00:04:42;;;;;;;29.03;17.10;;;1.80;99.30;;;;;;5015166;28;20944;-54
2023/01/21 00:07:09;;;;;;;25.90;17.77;;;1.80;99.50;;;;;;5015680;28;20464;-54
2023/01/21 00:09:35;;;;;;;22.30;17.97;;;1.80;99.70;;;;;;5015029;28;20945;-54
2023/01/21 00:12:02;;;;;;;26.87;18.70;;;1.80;99.80;;;;;;5014835;28;20476;-54
2023/01/21 00:14:31;;;;;;;26.03;18.90;;;1.70;99.90;;;;;;5015261;28;20522;-54
2023/01/21 00:16:59;;;;;;;29.57;19.40;;;1.70;99.90;;;;;;5015390;28;20452;-54
2023/01/21 00:19:26;;;;;;;46.93;27.23;;;1.80;99.90;;;;;;5015024;28;20945;-54
2023/01/21 00:21:53;;;;;;;36.57;25.40;;;1.70;99.90;;;;;;5015333;28;20517;-54
2023/01/21 00:24:21;;;;;;;29.20;17.77;;;1.80;99.90;;;;;;5015665;28;20808;-55
2023/01/21 00:26:48;;;;;;;32.23;21.40;;;1.70;99.90;;;;;;5015906;28;20433;-54
2023/01/21 00:29:15;;;;;;;29.40;19.20;;;1.70;99.90;;;;;;5015486;28;20448;-55
2023/01/21 00:31:43;;;;;;;29.77;19.23;;;1.70;99.90;;;;;;5015802;28;20455;-55
2023/01/21 00:34:10;;;;;;;29.27;19.40;;;1.70;99.90;;;;;;5015950;28;20518;-55
2023/01/21 00:36:37;;;;;;;26.60;19.40;;;1.70;99.90;;;;;;5015318;28;20464;-55
2023/01/21 00:39:04;;;;;;;32.90;22.67;;;1.80;99.90;;;;;;5015069;28;20528;-55
2023/01/21 00:41:30;;;;;;;26.80;17.70;;;1.70;99.90;;;;;;5015989;28;20455;-55
2023/01/21 00:43:57;;;;;;;33.53;22.00;;;1.70;99.90;;;;;;5014472;28;20486;-55
2023/01/21 00:46:24;;;;;;;27.20;18.80;;;1.70;99.90;;;;;;5014791;28;20825;-55
2023/01/21 00:48:52;;;;;;;32.30;20.43;;;1.70;99.90;;;;;;5014562;28;20463;-54
2023/01/21 00:51:19;;;;;;;34.47;22.57;;;1.70;99.90;;;;;;5014404;28;20531;-54
2023/01/21 00:53:45;;;;;;;26.40;19.10;;;1.70;99.90;;;;;;5014169;28;20494;-54
2023/01/21 00:56:14;;;;;;;31.70;21.03;;;1.70;99.90;;;;;;5014077;28;20955;-54
2023/01/21 00:58:42;;;;;;;30.23;21.57;;;1.70;99.90;;;;;;5014376;28;20451;-54
2023/01/21 01:01:10;;;;;;;26.60;19.37;;;1.70;99.90;;;;;;5014321;28;20452;-54
2023/01/21 01:03:40;;;;;;;25.83;19.20;;;1.70;99.90;;;;;;5013798;28;21010;-54
2023/01/21 01:06:10;;;;;;;31.70;21.63;;;1.70;99.90;;;;;;5013185;28;20442;-54
2023/01/21 01:08:37;;;;;;;31.80;20.70;;;1.70;99.90;;;;;;5013967;28;20432;-54
2023/01/21 01:11:04;;;;;;;28.97;20.27;;;1.70;99.90;;;;;;5014009;28;20462;-55
2023/01/21 01:13:33;;;;;;;30.37;20.90;;;1.70;99.90;;;;;;5013784;28;20494;-54
2023/01/21 01:16:01;;;;;;;30.20;20.70;;;1.70;99.90;;;;;;5014055;28;20454;-54
2023/01/21 01:18:29;;;;;;;31.13;19.80;;;1.70;99.90;;;;;;5013919;28;20440;-54
2023/01/21 01:20:56;;;;;;;33.67;22.50;;;1.60;99.90;;;;;;5013359;28;20992;-54
2023/01/21 01:23:25;;;;;;;33.40;22.30;;;1.60;99.90;;;;;;5013713;28;20460;-54
2023/01/21 01:25:55;;;;;;;31.90;20.73;;;1.60;99.90;;;;;;5013682;28;20456;-54
2023/01/21 01:28:22;;;;;;;33.30;21.80;;;1.60;99.90;;;;;;5013558;28;20432;-54
2023/01/21 01:30:49;;;;;;;30.93;19.60;;;1.60;99.90;;;;;;5013724;28;20867;-55
2023/01/21 01:33:18;;;;;;;31.73;21.70;;;1.60;99.90;;;;;;5013533;28;20491;-55
2023/01/21 01:35:45;;;;;;;31.57;21.13;;;1.60;99.90;;;;;;5013356;28;20948;-55
2023/01/21 01:38:12;;;;;;;31.90;22.53;;;1.60;99.90;;;;;;5013656;28;20440;-55
2023/01/21 01:40:41;;;;;;;37.03;20.50;;;1.50;99.90;;;;;;5013860;28;20456;-54
2023/01/21 01:43:15;;;;;;;35.70;22.10;;;1.60;99.90;;;;;;5013328;28;20857;-55
2023/01/21 01:45:42;;;;;;;34.47;20.73;;;1.60;99.90;;;;;;5013579;28;20432;-54
2023/01/21 01:48:12;;;;;;;31.30;19.47;;;1.60;99.90;;;;;;5013317;28;20456;-55
2023/01/21 01:50:39;;;;;;;32.00;20.50;;;1.60;99.90;;;;;;5013540;28;20510;-54
2023/01/21 01:53:06;;;;;;;34.50;21.53;;;1.60;99.90;;;;;;5013219;28;20525;-54
2023/01/21 01:55:36;;;;;;;29.27;20.50;;;1.60;99.90;;;;;;5013465;28;20454;-54
2023/01/21 01:58:08;;;;;;;33.23;21.90;;;1.60;99.90;;;;;;5013481;28;20505;-54
2023/01/21 02:00:35;;;;;;;33.00;21.70;;;1.60;99.90;;;;;;5013600;28;20431;-55
2023/01/21 02:05:47;;;;;;;60.57;34.67;;;1.50;99.90;;;;;;5013401;28;20406;-55
2023/01/21 02:08:14;;;;;;;58.27;39.47;;;1.50;99.90;;;;;;5013428;28;20456;-55
2023/01/21 02:10:41;;;;;;;51.63;36.10;;;1.50;99.90;;;;;;5013122;28;20875;-55
2023/01/21 02:13:09;;;;;;;44.87;28.47;;;1.50;99.90;;;;;;5013188;28;20503;-55
2023/01/21 02:15:55;;;;;;;42.63;25.87;;;1.50;99.90;;;;;;5013023;28;20936;-55
2023/01/21 02:18:34;;;;;;;34.63;22.87;;;1.40;99.90;;;;;;5016674;28;20443;-55
2023/01/21 02:21:24;;;;;;;34.10;21.30;;;1.40;99.90;;;;;;5017257;28;20428;-56
2023/01/21 02:24:36;;;;;;;32.63;21.70;;;1.40;99.90;;;;;;5016880;28;20844;-55
2023/01/21 02:27:42;;;;;;;29.70;20.37;;;1.40;99.90;;;;;;4970748;28;20455;-56
2023/01/21 02:30:41;;;;;;;29.37;20.57;;;1.40;99.90;;;;;;5016942;28;20443;-56
2023/01/21 02:33:50;;;;;;;30.63;20.70;;;1.30;99.90;;;;;;5016836;28;20475;-56
2023/01/21 02:36:45;;;;;;;30.40;21.23;;;1.30;99.90;;;;;;5016562;28;20980;-55
2023/01/21 02:39:25;;;;;;;34.43;22.43;;;1.30;99.90;;;;;;5013777;28;20989;-55
2023/01/21 02:42:05;;;;;;;33.37;21.03;;;1.40;99.90;;;;;;5016841;28;20479;-56
2023/01/21 02:44:38;;;;;;;34.93;23.00;;;1.40;99.90;;;;;;5016881;28;20428;-56
2023/01/21 02:47:16;;;;;;;32.07;22.93;;;1.30;99.90;;;;;;5017772;28;20746;-55
2023/01/21 02:49:49;;;;;;;34.50;21.93;;;1.30;99.90;;;;;;5016768;28;20465;-56
2023/01/21 02:52:20;;;;;;;32.37;21.40;;;1.30;99.90;;;;;;5016642;28;20470;-56
2023/01/21 02:54:50;;;;;;;33.83;21.00;;;1.30;99.90;;;;;;5016449;28;20537;-56
2023/01/21 02:57:20;;;;;;;32.90;20.83;;;1.30;99.90;;;;;;5016973;28;20514;-56
2023/01/21 02:59:51;;;;;;;33.43;21.87;;;1.30;99.90;;;;;;5016478;28;20452;-56
2023/01/21 03:02:31;;;;;;;28.90;20.63;;;1.30;99.90;;;;;;5016427;28;20478;-56
2023/01/21 03:05:09;;;;;;;31.63;20.73;;;1.30;99.90;;;;;;5016526;28;20779;-56
2023/01/21 03:07:41;;;;;;;35.23;22.50;;;1.30;99.90;;;;;;5016314;28;20475;-56
2023/01/21 03:10:14;;;;;;;28.90;20.87;;;1.30;99.90;;;;;;5016602;28;20441;-55
2023/01/21 03:12:50;;;;;;;31.73;19.50;;;1.30;99.90;;;;;;5016203;28;20463;-56
2023/01/21 03:18:12;;;;;;;33.67;21.67;;;1.30;99.90;;;;;;5016399;28;20423;-56
2023/01/21 03:20:43;;;;;;;33.10;20.87;;;1.30;99.90;;;;;;5015954;28;20459;-56
2023/01/21 03:23:12;;;;;;;34.07;22.40;;;1.30;99.90;;;;;;5016364;28;20467;-56
2023/01/21 03:25:41;;;;;;;33.63;21.27;;;1.30;99.90;;;;;;5015784;28;20857;-56
2023/01/21 03:28:11;;;;;;;33.30;22.93;;;1.30;99.90;;;;;;5015669;28;20455;-56
2023/01/21 03:30:41;;;;;;;35.03;21.40;;;1.30;99.90;;;;;;5015720;28;20444;-56
2023/01/21 03:33:10;;;;;;;35.50;22.27;;;1.30;99.90;;;;;;5015908;28;20472;-56
2023/01/21 03:35:41;;;;;;;31.80;20.90;;;1.30;99.90;;;;;;5015880;28;20466;-56
2023/01/21 03:38:13;;;;;;;32.97;21.33;;;1.30;99.90;;;;;;5016817;28;20428;-56
2023/01/21 03:40:44;;;;;;;35.03;22.90;;;1.20;99.90;;;;;;5015791;28;20806;-56
2023/01/21 03:43:10;;;;;;;32.20;20.57;;;1.30;99.90;;;;;;5015626;28;20487;-56
2023/01/21 03:45:43;;;;;;;29.97;20.60;;;1.20;99.90;;;;;;5015724;28;20448;-56
2023/01/21 03:48:17;;;;;;;39.03;23.30;;;1.30;99.90;;;;;;5015609;28;20923;-56
2023/01/21 03:50:47;;;;;;;32.90;21.10;;;1.30;99.90;;;;;;5016098;28;20516;-56
2023/01/21 03:53:15;;;;;;;36.67;22.73;;;1.30;99.90;;;;;;5015711;28;20853;-56
2023/01/21 03:55:42;;;;;;;38.10;23.20;;;1.30;99.90;;;;;;5015220;28;20451;-56
2023/01/21 03:58:09;;;;;;;37.57;24.07;;;1.30;99.90;;;;;;5015696;28;20447;-56
2023/01/21 04:00:35;;;;;;;30.07;20.37;;;1.30;99.90;;;;;;5015588;28;20455;-56
2023/01/21 04:03:02;;;;;;;34.47;23.10;;;1.30;99.90;;;;;;5015398;28;20472;-56
2023/01/21 04:05:29;;;;;;;36.40;24.33;;;1.30;99.90;;;;;;5015635;28;20440;-56
2023/01/21 04:07:55;;;;;;;35.30;21.97;;;1.30;99.90;;;;;;5015297;28;20455;-56
2023/01/21 04:10:23;;;;;;;36.67;22.17;;;1.30;99.90;;;;;;5015119;28;20458;-56
2023/01/21 04:12:50;;;;;;;39.03;24.17;;;1.30;99.90;;;;;;5014777;28;21018;-57
2023/01/21 04:15:17;;;;;;;34.10;22.37;;;1.30;99.90;;;;;;5015131;28;20483;-56
2023/01/21 04:17:43;;;;;;;36.23;22.60;;;1.30;99.90;;;;;;5015274;28;20444;-56
2023/01/21 04:20:12;;;;;;;32.53;22.53;;;1.30;99.90;;;;;;5014380;28;20456;-57
2023/01/21 04:22:38;;;;;;;35.50;22.60;;;1.30;99.90;;;;;;5014450;28;20998;-56
2023/01/21 04:25:05;;;;;;;35.97;22.60;;;1.30;99.90;;;;;;5014929;28;20463;-56
2023/01/21 04:27:33;;;;;;;30.60;20.90;;;1.30;99.90;;;;;;5014781;28;20451;-56
2023/01/21 04:30:00;;;;;;;32.70;22.23;;;1.30;99.90;;;;;;5014924;28;20451;-56
2023/01/21 04:32:27;;;;;;;34.17;21.50;;;1.30;99.90;;;;;;5014714;28;20578;-56
2023/01/21 04:34:54;;;;;;;36.50;23.47;;;1.20;99.90;;;;;;5014533;28;20496;-56
2023/01/21 04:37:20;;;;;;;30.23;21.67;;;1.20;99.90;;;;;;5014655;28;20447;-56
2023/01/21 04:39:47;;;;;;;34.47;22.80;;;1.20;99.90;;;;;;5014279;28;20822;-56
2023/01/21 04:42:14;;;;;;;36.50;22.60;;;1.20;99.90;;;;;;5014044;28;20474;-56
2023/01/21 04:44:43;;;;;;;35.07;22.97;;;1.20;99.90;;;;;;5014236;28;20831;-56
2023/01/21 04:47:10;;;;;;;33.90;22.00;;;1.20;99.90;;;;;;5014643;28;20526;-56
2023/01/21 04:49:37;;;;;;;36.80;21.70;;;1.20;99.90;;;;;;5014521;28;20455;-56
2023/01/21 04:52:04;;;;;;;33.00;20.90;;;1.20;99.90;;;;;;5014383;28;20476;-56
2023/01/21 04:54:30;;;;;;;32.73;22.17;;;1.10;99.90;;;;;;5014352;28;20479;-56
2023/01/21 04:56:58;;;;;;;35.57;21.57;;;1.00;99.70;;;;;;5014394;28;20458;-56
2023/01/21 04:59:24;;;;;;;40.97;23.83;;;1.10;99.70;;;;;;5014308;28;20483;-56
2023/01/21 05:01:52;;;;;;;34.97;23.20;;;1.00;99.50;;;;;;5013966;28;20479;-56
2023/01/21 05:04:19;;;;;;;37.43;22.63;;;1.00;99.50;;;;;;5014118;28;20804;-56
2023/01/21 05:06:46;;;;;;;34.00;21.37;;;1.00;99.50;;;;;;5014158;28;20529;-55
2023/01/21 05:09:12;;;;;;;34.50;22.10;;;1.00;99.50;;;;;;5014123;28;20452;-56
2023/01/21 05:11:39;;;;;;;31.57;20.50;;;0.90;99.50;;;;;;5014047;28;20451;-56
2023/01/21 05:14:06;;;;;;;31.83;21.03;;;0.90;99.60;;;;;;5013881;28;20483;-56
2023/01/21 05:16:32;;;;;;;33.77;21.33;;;0.90;99.50;;;;;;5014028;28;20447;-56
2023/01/21 05:19:00;;;;;;;37.60;23.40;;;0.90;99.60;;;;;;5013941;28;20871;-56
2023/01/21 05:21:27;;;;;;;36.50;22.73;;;0.80;99.60;;;;;;5013787;28;20460;-56
2023/01/21 05:23:54;;;;;;;36.50;23.80;;;0.80;99.60;;;;;;5013994;28;20463;-56
2023/01/21 05:26:21;;;;;;;36.50;22.10;;;0.80;99.60;;;;;;5013834;28;20514;-56
2023/01/21 05:28:48;;;;;;;31.20;21.27;;;0.80;99.60;;;;;;5013824;28;20463;-56
2023/01/21 05:31:15;;;;;;;32.70;22.70;;;0.80;99.70;;;;;;5013550;28;20453;-56
2023/01/21 05:33:42;;;;;;;32.17;21.23;;;0.80;99.70;;;;;;5013573;28;20476;-56
2023/01/21 05:36:11;;;;;;;36.80;22.20;;;0.80;99.70;;;;;;5013858;28;20549;-56
2023/01/21 05:38:37;;;;;;;39.67;22.60;;;0.80;99.70;;;;;;5013789;28;20462;-56
2023/01/21 05:41:04;;;;;;;34.43;22.47;;;0.80;99.80;;;;;;5013789;28;20451;-56
2023/01/21 05:43:31;;;;;;;38.63;22.50;;;0.80;99.80;;;;;;5013688;28;20490;-56
2023/01/21 05:45:59;;;;;;;37.90;23.27;;;0.70;99.70;;;;;;5014048;28;20854;-56
2023/01/21 05:48:27;;;;;;;41.40;22.70;;;0.70;99.70;;;;;;5013814;28;20443;-56
2023/01/21 05:50:54;;;;;;;35.43;22.43;;;0.70;99.70;;;;;;5013726;28;20487;-56
2023/01/21 05:53:22;;;;;;;38.67;23.47;;;0.70;99.90;;;;;;5013094;28;20517;-56
2023/01/21 05:55:52;;;;;;;39.37;22.57;;;0.70;99.80;;;;;;5013603;28;20494;-56
2023/01/21 05:58:19;;;;;;;36.47;22.50;;;0.70;99.80;;;;;;5013653;28;20792;-56
2023/01/21 06:00:47;;;;;;;34.23;21.03;;;0.70;99.90;;;;;;5013330;28;20451;-56
2023/01/21 06:03:14;;;;;;;31.63;23.10;;;0.70;99.90;;;;;;5013533;28;20562;-55
2023/01/21 06:05:41;;;;;;;33.60;22.20;;;0.70;99.90;;;;;;5013569;28;20451;-56
2023/01/21 06:08:08;;;;;;;35.57;24.43;;;0.70;99.90;;;;;;5013550;28;20487;-56
2023/01/21 06:10:36;;;;;;;37.27;22.03;;;0.70;99.90;;;;;;5013523;28;20455;-56
2023/01/21 06:13:03;;;;;;;35.37;22.53;;;0.70;99.90;;;;;;5013474;28;20474;-56
2023/01/21 06:15:32;;;;;;;34.20;21.87;;;0.70;99.90;;;;;;5013472;28;20491;-56
2023/01/21 06:18:00;;;;;;;38.40;21.97;;;0.70;99.90;;;;;;5013188;28;20903;-56
2023/01/21 06:20:29;;;;;;;32.27;21.63;;;0.70;99.90;;;;;;5013266;28;20447;-56
2023/01/21 06:22:56;;;;;;;33.43;22.33;;;0.70;99.90;;;;;;5013236;28;20478;-56
2023/01/21 06:25:23;;;;;;;35.83;23.70;;;0.80;99.90;;;;;;5013817;28;20448;-56
2023/01/21 06:27:51;;;;;;;33.07;22.13;;;0.70;99.90;;;;;;5013123;28;20855;-56
2023/01/21 06:30:18;;;;;;;37.30;22.07;;;0.80;99.90;;;;;;5013229;28;20463;-56
2023/01/21 06:32:44;;;;;;;38.63;24.47;;;0.80;99.90;;;;;;5013253;28;20470;-56
2023/01/21 06:35:11;;;;;;;33.83;22.33;;;0.80;99.90;;;;;;5013267;28;20495;-56
2023/01/21 06:37:38;;;;;;;35.10;22.03;;;0.80;99.90;;;;;;5014078;28;20463;-56
2023/01/21 06:40:07;;;;;;;38.07;24.30;;;0.80;99.90;;;;;;5013232;28;20823;-56
2023/01/21 06:42:33;;;;;;;36.57;23.03;;;0.80;99.90;;;;;;5013051;28;20533;-56
2023/01/21 06:45:01;;;;;;;33.23;20.47;;;0.80;99.90;;;;;;5013209;28;20455;-56
2023/01/21 06:47:28;;;;;;;34.40;23.03;;;0.70;99.90;;;;;;5013129;28;20459;-56
2023/01/21 06:49:55;;;;;;;32.60;22.80;;;0.70;99.80;;;;;;5013256;28;20461;-56
2023/01/21 06:52:22;;;;;;;33.03;21.70;;;0.70;99.80;;;;;;5013221;28;20475;-55
2023/01/21 06:54:48;;;;;;;34.43;21.73;;;0.70;99.70;;;;;;5013081;28;20490;-55
2023/01/21 06:57:15;;;;;;;35.43;22.77;;;0.60;99.60;;;;;;5013346;28;20448;-55
2023/01/21 06:59:42;;;;;;;33.20;22.40;;;0.60;99.60;;;;;;5013428;28;20490;-56
2023/01/21 07:02:12;;;;;;;40.77;24.40;;;0.60;99.70;;;;;;5013081;28;20992;-55
2023/01/21 07:04:39;;;;;;;38.67;24.53;;;0.60;99.70;;;;;;5015041;28;20435;-55
2023/01/21 07:07:06;;;;;;;34.23;22.40;;;0.50;99.80;;;;;;5016970;28;20855;-56
2023/01/21 07:09:33;;;;;;;36.13;22.00;;;0.50;99.90;;;;;;5016996;28;20451;-55
2023/01/21 07:12:00;;;;;;;35.27;22.70;;;0.50;99.90;;;;;;5016705;28;21010;-55
2023/01/21 07:14:26;;;;;;;45.23;24.77;;;0.50;99.90;;;;;;5017383;28;20993;-55
2023/01/21 07:16:53;;;;;;;37.90;23.00;;;0.50;99.90;;;;;;5017570;28;20483;-55
2023/01/21 07:19:21;;;;;;;35.37;22.97;;;0.50;99.90;;;;;;5016871;28;20436;-55
2023/01/21 07:21:48;;;;;;;37.07;23.10;;;0.60;99.90;;;;;;5016166;28;20488;-55
2023/01/21 07:24:14;;;;;;;34.77;22.10;;;0.60;99.90;;;;;;5016322;28;20463;-55
2023/01/21 07:26:42;;;;;;;37.67;24.27;;;0.60;99.90;;;;;;5016195;28;20807;-55
2023/01/21 07:29:09;;;;;;;39.93;24.00;;;0.60;99.90;;;;;;5016541;28;20462;-56
2023/01/21 07:31:35;;;;;;;41.83;26.10;;;0.60;99.90;;;;;;5016311;28;20455;-56
2023/01/21 07:34:03;;;;;;;39.43;24.97;;;0.60;99.90;;;;;;5015764;28;20940;-55
2023/01/21 07:36:31;;;;;;;37.93;25.57;;;0.60;99.90;;;;;;5015958;28;20492;-56
2023/01/21 07:38:58;;;;;;;44.70;25.47;;;0.60;99.90;;;;;;5015906;28;20471;-55
2023/01/21 07:41:24;;;;;;;40.77;26.27;;;0.60;99.90;;;;;;5015802;28;20448;-56
2023/01/21 07:43:51;;;;;;;41.73;25.30;;;0.70;99.90;;;;;;5016611;28;20467;-55
2023/01/21 07:46:18;;;;;;;37.17;24.30;;;0.70;99.90;;;;;;5019109;28;20453;-55
2023/01/21 07:48:47;;;;;;;36.87;23.90;;;0.70;99.90;;;;;;5016810;28;20441;-55
2023/01/21 07:51:14;;;;;;;41.70;27.13;;;0.70;99.90;;;;;;5016320;28;20501;-55
2023/01/21 07:53:42;;;;;;;42.73;27.77;;;0.70;99.90;;;;;;5015263;28;20463;-55
2023/01/21 07:56:09;;;;;;;46.83;28.57;;;0.70;99.90;;;;;;5016395;28;20475;-55
2023/01/21 07:58:36;;;;;;;44.20;26.90;;;0.70;99.90;;;;;;5015468;28;20455;-55
2023/01/21 08:01:04;;;;;;;40.00;26.13;;;0.70;99.90;;;;;;5015742;28;20451;-55
2023/01/21 08:03:30;;;;;;;45.23;28.57;;;0.70;99.90;;;;;;5015013;28;20823;-55
2023/01/21 08:05:57;;;;;;;45.20;28.60;;;0.70;99.90;;;;;;5015330;28;20439;-56
2023/01/21 08:08:24;;;;;;;39.43;25.67;;;0.70;99.90;;;;;;5015194;28;20448;-55
2023/01/21 08:10:53;;;;;;;42.37;26.37;;;0.70;99.90;;;;;;5015267;28;20459;-54
2023/01/21 08:13:20;;;;;;;43.17;26.83;;;0.70;99.90;;;;;;5014807;28;20984;-55
2023/01/21 08:15:49;;;;;;;42.83;28.10;;;0.70;99.90;;;;;;5014684;28;20529;-55
2023/01/21 08:18:16;;;;;;;45.83;27.47;;;0.70;99.90;;;;;;5015154;28;20448;-55
2023/01/21 08:20:43;;;;;;;43.00;27.50;;;0.70;99.90;;;;;;5015150;28;20445;-55
2023/01/21 08:23:10;;;;;;;51.30;26.10;;;0.70;99.90;;;;;;5014900;28;20467;-55
2023/01/21 08:25:37;;;;;;;45.63;29.33;;;0.70;99.90;;;;;;5015004;28;20429;-55
2023/01/21 08:28:05;;;;;;;41.87;25.43;;;0.80;99.90;;;;;;5014924;28;20443;-55
2023/01/21 08:30:32;;;;;;;42.10;28.17;;;0.80;99.90;;;;;;5014932;28;20448;-55
2023/01/21 08:32:59;;;;;;;48.20;27.70;;;0.80;99.90;;;;;;5014765;28;20547;-55
2023/01/21 08:35:25;;;;;;;46.10;28.80;;;0.80;99.90;;;;;;5014816;28;20494;-56
2023/01/21 08:37:56;;;;;;;50.20;31.50;;;0.80;99.90;;;;;;5014777;28;20439;-56
2023/01/21 08:40:25;;;;;;;44.80;29.90;;;0.90;99.90;;;;;;5014913;28;20420;-55
2023/01/21 08:42:51;;;;;;;41.17;27.30;;;1.00;99.90;;;;;;5014283;28;20553;-56
2023/01/21 08:45:19;;;;;;;43.73;28.70;;;1.00;99.90;;;;;;5014616;28;20467;-56
2023/01/21 08:47:46;;;;;;;43.70;27.43;;;1.00;99.90;;;;;;5014543;28;20444;-57
2023/01/21 08:50:13;;;;;;;46.10;28.20;;;1.10;99.90;;;;;;5014720;28;20795;-56
2023/01/21 08:52:39;;;;;;;46.23;28.10;;;1.10;99.90;;;;;;5014384;28;20503;-56
2023/01/21 08:55:07;;;;;;;41.60;28.67;;;1.10;99.90;;;;;;5014398;28;20499;-55
2023/01/21 08:57:33;;;;;;;43.70;26.90;;;1.10;99.90;;;;;;5014524;28;20436;-55
2023/01/21 09:00:00;;;;;;;44.50;29.50;;;1.10;99.90;;;;;;5013992;28;20948;-55
2023/01/21 09:02:28;;;;;;;46.97;30.17;;;1.20;99.90;;;;;;5014011;28;21000;-55
2023/01/21 09:04:55;;;;;;;51.00;30.67;;;1.20;99.90;;;;;;5014597;28;20468;-56
2023/01/21 09:07:21;;;;;;;47.03;32.07;;;1.30;99.90;;;;;;5014171;28;20455;-55
2023/01/21 09:09:48;;;;;;;48.47;32.40;;;1.30;99.90;;;;;;5014256;28;20439;-54
2023/01/21 09:12:15;;;;;;;51.73;30.40;;;1.30;99.90;;;;;;5014181;28;20503;-56
2023/01/21 09:14:42;;;;;;;46.07;29.73;;;1.40;99.90;;;;;;5014139;28;20550;-56
2023/01/21 09:17:09;;;;;;;45.57;31.00;;;1.40;99.90;;;;;;5014012;28;20487;-56
2023/01/21 09:19:37;;;;;;;50.40;30.93;;;1.50;99.90;;;;;;5014055;28;20467;-56
2023/01/21 09:22:05;;;;;;;44.90;29.27;;;1.50;99.90;;;;;;5013934;28;20471;-56
2023/01/21 09:24:32;;;;;;;40.77;27.77;;;1.60;99.90;;;;;;5014038;28;20498;-56
2023/01/21 09:26:58;;;;;;;44.80;31.70;;;1.60;99.90;;;;;;5012950;28;20900;-56
2023/01/21 09:29:25;;;;;;;45.40;29.93;;;1.70;99.90;;;;;;5013551;28;21022;-56
2023/01/21 09:31:52;;;;;;;45.27;29.03;;;1.80;99.90;;;;;;5013558;28;21062;-56
2023/01/21 09:34:19;;;;;;;43.07;28.13;;;1.90;99.90;;;;;;5013855;28;20502;-56
2023/01/21 09:36:47;;;;;;;47.53;28.40;;;1.90;99.90;;;;;;5013353;28;20487;-56
2023/01/21 09:39:13;;;;;;;54.20;30.03;;;1.90;99.90;;;;;;5013844;28;20484;-56
2023/01/21 09:41:43;;;;;;;40.80;27.30;;;2.00;99.90;;;;;;5013701;28;20459;-55
2023/01/21 09:44:20;;;;;;;44.40;28.53;;;2.00;99.90;;;;;;5013577;28;20471;-55
2023/01/21 09:46:52;;;;;;;40.37;27.43;;;2.10;99.90;;;;;;5013747;28;20424;-55
2023/01/21 09:49:22;;;;;;;44.90;28.57;;;2.10;99.90;;;;;;5013617;28;20440;-56
2023/01/21 09:51:57;;;;;;;41.77;26.63;;;2.20;99.90;;;;;;5013690;28;21018;-55
2023/01/21 09:54:28;;;;;;;42.47;28.20;;;2.20;99.90;;;;;;5013577;28;20435;-55
2023/01/21 09:57:23;;;;;;;45.60;26.50;;;2.30;99.90;;;;;;5013556;28;20842;-55
2023/01/21 10:00:04;;;;;;;48.50;26.20;;;2.20;99.90;;;;;;5013495;28;20451;-55
2023/01/21 10:02:39;;;;;;;44.33;26.57;;;2.30;99.90;;;;;;5013533;28;20463;-55
2023/01/21 10:05:28;;;;;;;47.90;28.43;;;2.30;99.90;;;;;;5013613;28;20427;-55
2023/01/21 10:08:03;;;;;;;38.47;25.17;;;2.40;99.90;;;;;;5013568;28;20451;-55
2023/01/21 10:10:39;;;;;;;41.37;24.90;;;2.40;99.90;;;;;;5013632;28;20440;-55
2023/01/21 10:13:21;;;;;;;40.77;25.80;;;2.40;99.90;;;;;;5013436;28;20538;-56
2023/01/21 10:16:00;;;;;;;38.67;24.03;;;2.50;99.90;;;;;;5013459;28;20833;-56
2023/01/21 10:18:30;;;;;;;38.57;24.27;;;2.50;99.90;;;;;;5013161;28;20908;-56
2023/01/21 10:21:03;;;;;;;37.63;23.90;;;2.50;99.90;;;;;;5013212;28;20468;-55
2023/01/21 10:23:37;;;;;;;38.50;23.53;;;2.60;99.90;;;;;;5013364;28;20505;-55
2023/01/21 10:26:08;;;;;;;37.67;23.03;;;2.60;99.90;;;;;;5013411;28;20817;-55
2023/01/21 10:28:40;;;;;;;40.47;23.77;;;2.70;99.90;;;;;;5013381;28;20818;-55
2023/01/21 10:31:18;;;;;;;36.10;22.60;;;2.70;99.90;;;;;;5013363;28;20832;-55
2023/01/21 10:33:45;;;;;;;40.50;23.20;;;2.80;99.90;;;;;;5013097;28;21000;-55
2023/01/21 10:36:38;;;;;;;36.30;22.60;;;2.80;99.90;;;;;;5013268;28;20483;-55
2023/01/21 10:39:15;;;;;;;40.00;24.27;;;2.90;99.90;;;;;;5015801;28;20444;-56
2023/01/21 10:41:59;;;;;;;35.73;23.67;;;2.90;99.90;;;;;;5016857;28;20442;-56
2023/01/21 10:44:34;;;;;;;34.40;23.70;;;2.90;99.90;;;;;;5016954;28;20440;-56
2023/01/21 10:47:07;;;;;;;37.30;23.60;;;2.90;99.90;;;;;;5016964;28;20833;-55
2023/01/21 10:49:48;;;;;;;37.00;23.20;;;2.90;99.90;;;;;;5016885;28;20420;-55
2023/01/21 10:52:22;;;;;;;38.50;23.60;;;2.90;99.90;;;;;;5016685;28;20472;-56
2023/01/21 10:54:57;;;;;;;31.20;21.87;;;3.00;99.90;;;;;;5016397;28;20919;-56
2023/01/21 10:57:39;;;;;;;33.10;23.43;;;3.00;99.90;;;;;;5016438;28;20998;-55
2023/01/21 11:00:17;;;;;;;34.43;22.70;;;3.00;99.90;;;;;;5016663;28;20431;-55
2023/01/21 11:02:49;;;;;;;38.90;25.10;;;3.00;99.90;;;;;;5016291;28;21041;-56
2023/01/21 11:05:17;;;;;;;38.60;24.17;;;3.10;99.90;;;;;;5016562;28;20441;-56
2023/01/21 11:07:44;;;;;;;36.07;24.23;;;3.10;99.90;;;;;;5016633;28;20444;-55
2023/01/21 11:10:17;;;;;;;39.70;23.93;;;3.10;99.90;;;;;;5016417;28;20456;-55
2023/01/21 11:12:44;;;;;;;40.00;26.20;;;3.10;99.90;;;;;;5016012;28;20946;-55
2023/01/21 11:15:14;;;;;;;38.40;24.53;;;3.20;99.90;;;;;;5016402;28;20443;-56
2023/01/21 11:17:43;;;;;;;38.30;25.33;;;3.20;99.90;;;;;;5016334;28;20479;-56
2023/01/21 11:20:19;;;;;;;38.47;24.20;;;3.20;99.90;;;;;;5015992;28;20441;-55
2023/01/21 11:22:46;;;;;;;33.70;22.43;;;3.20;99.90;;;;;;5016094;28;20476;-56
2023/01/21 11:25:25;;;;;;;39.23;24.13;;;3.30;99.90;;;;;;5016207;28;20504;-56
2023/01/21 11:27:51;;;;;;;34.77;21.97;;;3.30;99.90;;;;;;5016230;28;20435;-56
2023/01/21 11:30:36;;;;;;;42.90;26.03;;;3.20;99.80;;;;;;5016923;28;20442;-56
2023/01/21 11:33:22;;;;;;;35.83;24.03;;;3.30;99.90;;;;;;5015987;28;20487;-57
2023/01/21 11:35:49;;;;;;;42.90;25.07;;;3.30;99.80;;;;;;5015941;28;20483;-56
2023/01/21 11:38:40;;;;;;;40.07;26.03;;;3.30;99.90;;;;;;5015679;28;20437;-56
2023/01/21 11:41:17;;;;;;;46.13;27.00;;;3.30;99.90;;;;;;5000959;28;20490;-55
2023/01/21 11:43:46;;;;;;;41.73;26.37;;;3.40;99.90;;;;;;5015395;28;20482;-55
2023/01/21 11:46:27;;;;;;;52.83;28.30;;;3.40;99.90;;;;;;5015904;28;20444;-56
2023/01/21 11:48:55;;;;;;;42.63;28.33;;;3.40;99.90;;;;;;5015711;28;20480;-56
2023/01/21 11:51:21;;;;;;;47.27;26.97;;;3.40;99.90;;;;;;5014629;28;20945;-56
2023/01/21 11:53:48;;;;;;;41.00;26.33;;;3.50;99.90;;;;;;5015634;28;20456;-55
2023/01/21 11:56:16;;;;;;;43.00;25.63;;;3.50;99.90;;;;;;5015340;28;20982;-55
2023/01/21 11:58:43;;;;;;;43.37;24.63;;;3.50;99.90;;;;;;5016457;28;20472;-56
2023/01/21 12:01:20;;;;;;;44.50;27.33;;;3.50;99.90;;;;;;5015766;28;20432;-56
2023/01/21 12:03:51;;;;;;;44.90;27.27;;;3.60;99.90;;;;;;5015440;28;20474;-56
2023/01/21 12:06:20;;;;;;;43.53;26.07;;;3.70;99.90;;;;;;5015155;28;20907;-55
2023/01/21 12:08:50;;;;;;;39.03;24.37;;;3.70;99.90;;;;;;5015105;28;20918;-55
2023/01/21 12:11:23;;;;;;;38.87;24.47;;;3.90;99.90;;;;;;5015587;28;20440;-55
2023/01/21 12:13:59;;;;;;;41.97;25.60;;;4.00;99.90;;;;;;5015295;28;20451;-54
2023/01/21 12:16:34;;;;;;;39.27;24.40;;;4.20;99.90;;;;;;5015285;28;20481;-54
2023/01/21 12:19:27;;;;;;;42.93;26.30;;;4.30;99.30;;;;;;5015213;28;20468;-54
2023/01/21 12:22:16;;;;;;;41.27;23.77;;;4.40;99.20;;;;;;5015104;28;20487;-54
2023/01/21 12:25:01;;;;;;;40.97;25.40;;;4.50;99.10;;;;;;5015125;28;20451;-54
2023/01/21 12:27:33;;;;;;;37.20;23.93;;;4.60;98.90;;;;;;5015186;28;20432;-53
2023/01/21 12:30:13;;;;;;;39.17;24.50;;;4.70;98.40;;;;;;5015341;28;20439;-53
2023/01/21 12:32:45;;;;;;;36.00;24.20;;;4.80;98.30;;;;;;5014875;28;20474;-53
2023/01/21 12:35:17;;;;;;;40.03;25.50;;;4.90;98.20;;;;;;5014915;28;20446;-54
2023/01/21 12:37:48;;;;;;;40.90;27.17;;;5.00;98.00;;;;;;5014888;28;20474;-54
2023/01/21 12:40:19;;;;;;;36.87;23.90;;;5.00;97.80;;;;;;5014737;28;20546;-54
2023/01/21 12:42:51;;;;;;;38.77;26.07;;;5.10;97.60;;;;;;5014536;28;20489;-54
2023/01/21 12:45:22;;;;;;;37.87;24.83;;;5.20;97.40;;;;;;5014867;28;20440;-54
2023/01/21 12:47:54;;;;;;;38.03;23.13;;;5.20;97.20;;;;;;5014826;28;20444;-54
2023/01/21 12:50:31;;;;;;;39.63;24.37;;;5.20;97.00;;;;;;5015009;28;20442;-54
2023/01/21 12:53:14;;;;;;;40.17;24.10;;;5.30;97.00;;;;;;5014600;28;20478;-54
2023/01/21 12:55:58;;;;;;;45.67;25.50;;;5.40;96.90;;;;;;5014674;28;20848;-54
2023/01/21 12:58:31;;;;;;;40.60;24.30;;;5.40;96.60;;;;;;5014736;28;20424;-54